Terminal Aerodrome Forecast
Issued by NWS Quad Cities IA IL

Home | Current Version | Previous Version | Text Only | Print | Product List | Glossary On
Versions: 1 2 3 4 5 6 7 8 9 10 11 12 13 14 15 16 17 18 19
000
FTUS43 KDVN 102336
TAFDBQ
TAF
KDBQ 102336Z 1100/1124 14009KT 3SM -SN BR OVC025
     FM110300 13011KT 3/4SM -SN OVC010
      TEMPO 1103/1107 1/2SM SN FG OVC007
     FM111200 14012KT 2SM -SN BR OVC015
     FM111500 16011KT 3SM -SHSN BR OVC008=

USA.gov is the U.S. government's official web portal to all federal, state and local government web resources and services.